sensor_id;sensor_type;location;lat;lon;timestamp;temperature;humidity
2487;DHT22;1254;49.144;8.212;2022-08-27T00:02:11;20.60;99.90
2487;DHT22;1254;49.144;8.212;2022-08-27T00:04:50;20.60;99.90
2487;DHT22;1254;49.144;8.212;2022-08-27T00:07:17;20.50;99.90
2487;DHT22;1254;49.144;8.212;2022-08-27T00:09:43;20.40;99.90
2487;DHT22;1254;49.144;8.212;2022-08-27T00:12:10;20.40;99.90
2487;DHT22;1254;49.144;8.212;2022-08-27T00:14:43;20.50;99.90
2487;DHT22;1254;49.144;8.212;2022-08-27T00:17:10;20.50;99.90
2487;DHT22;1254;49.144;8.212;2022-08-27T00:19:37;20.60;99.90
2487;DHT22;1254;49.144;8.212;2022-08-27T00:22:05;20.50;99.90
2487;DHT22;1254;49.144;8.212;2022-08-27T00:24:32;20.50;99.90
2487;DHT22;1254;49.144;8.212;2022-08-27T00:26:58;20.60;99.90
2487;DHT22;1254;49.144;8.212;2022-08-27T00:29:25;20.70;99.90
2487;DHT22;1254;49.144;8.212;2022-08-27T00:31:52;20.60;99.90
2487;DHT22;1254;49.144;8.212;2022-08-27T00:34:20;20.50;99.90
2487;DHT22;1254;49.144;8.212;2022-08-27T00:36:47;20.50;99.90
2487;DHT22;1254;49.144;8.212;2022-08-27T00:39:13;20.60;99.90
2487;DHT22;1254;49.144;8.212;2022-08-27T00:41:41;20.60;99.90
2487;DHT22;1254;49.144;8.212;2022-08-27T00:44:09;20.70;99.90
2487;DHT22;1254;49.144;8.212;2022-08-27T00:46:48;20.70;99.90
2487;DHT22;1254;49.144;8.212;2022-08-27T00:49:42;20.70;99.90
2487;DHT22;1254;49.144;8.212;2022-08-27T00:54:52;20.30;99.90
2487;DHT22;1254;49.144;8.212;2022-08-27T00:57:19;20.30;99.90
2487;DHT22;1254;49.144;8.212;2022-08-27T00:59:46;20.40;99.90
2487;DHT22;1254;49.144;8.212;2022-08-27T01:02:13;20.50;99.90
2487;DHT22;1254;49.144;8.212;2022-08-27T01:04:52;20.40;99.90
2487;DHT22;1254;49.144;8.212;2022-08-27T01:07:20;20.40;99.90
2487;DHT22;1254;49.144;8.212;2022-08-27T01:09:48;20.10;99.90
2487;DHT22;1254;49.144;8.212;2022-08-27T01:12:15;20.20;99.90
2487;DHT22;1254;49.144;8.212;2022-08-27T01:14:43;20.10;99.90
2487;DHT22;1254;49.144;8.212;2022-08-27T01:17:10;20.00;99.90
2487;DHT22;1254;49.144;8.212;2022-08-27T01:19:48;20.10;99.90
2487;DHT22;1254;49.144;8.212;2022-08-27T01:25:17;20.00;99.90
2487;DHT22;1254;49.144;8.212;2022-08-27T01:27:46;19.90;99.90
2487;DHT22;1254;49.144;8.212;2022-08-27T01:30:16;20.00;99.90
2487;DHT22;1254;49.144;8.212;2022-08-27T01:32:44;20.00;99.90
2487;DHT22;1254;49.144;8.212;2022-08-27T01:35:11;20.10;99.90
2487;DHT22;1254;49.144;8.212;2022-08-27T01:37:40;20.10;99.90
2487;DHT22;1254;49.144;8.212;2022-08-27T01:40:07;20.10;99.90
2487;DHT22;1254;49.144;8.212;2022-08-27T01:42:37;20.10;99.90
2487;DHT22;1254;49.144;8.212;2022-08-27T01:45:21;20.00;99.90
2487;DHT22;1254;49.144;8.212;2022-08-27T01:47:50;20.20;99.90
2487;DHT22;1254;49.144;8.212;2022-08-27T01:50:22;20.20;99.90
2487;DHT22;1254;49.144;8.212;2022-08-27T01:52:50;20.20;99.90
2487;DHT22;1254;49.144;8.212;2022-08-27T01:55:19;20.10;99.90
2487;DHT22;1254;49.144;8.212;2022-08-27T01:57:46;20.00;99.90
2487;DHT22;1254;49.144;8.212;2022-08-27T02:00:16;20.00;99.90
2487;DHT22;1254;49.144;8.212;2022-08-27T02:02:44;20.10;99.90
2487;DHT22;1254;49.144;8.212;2022-08-27T02:05:11;20.10;99.90
2487;DHT22;1254;49.144;8.212;2022-08-27T02:07:39;20.10;99.90
2487;DHT22;1254;49.144;8.212;2022-08-27T02:10:09;20.10;99.90
2487;DHT22;1254;49.144;8.212;2022-08-27T02:12:36;20.00;99.90
2487;DHT22;1254;49.144;8.212;2022-08-27T02:15:04;20.00;99.90
2487;DHT22;1254;49.144;8.212;2022-08-27T02:17:30;20.00;99.90
2487;DHT22;1254;49.144;8.212;2022-08-27T02:19:57;20.00;99.90
2487;DHT22;1254;49.144;8.212;2022-08-27T02:22:24;20.00;99.90
2487;DHT22;1254;49.144;8.212;2022-08-27T02:24:51;19.90;99.90
2487;DHT22;1254;49.144;8.212;2022-08-27T02:27:19;19.90;99.90
2487;DHT22;1254;49.144;8.212;2022-08-27T02:29:46;20.00;99.90
2487;DHT22;1254;49.144;8.212;2022-08-27T02:32:13;20.10;99.90
2487;DHT22;1254;49.144;8.212;2022-08-27T02:34:40;20.10;99.90
2487;DHT22;1254;49.144;8.212;2022-08-27T02:37:06;20.20;99.90
2487;DHT22;1254;49.144;8.212;2022-08-27T02:39:33;20.20;99.90
2487;DHT22;1254;49.144;8.212;2022-08-27T02:42:00;20.30;99.90
2487;DHT22;1254;49.144;8.212;2022-08-27T02:44:26;20.30;99.90
2487;DHT22;1254;49.144;8.212;2022-08-27T02:46:53;20.30;99.90
2487;DHT22;1254;49.144;8.212;2022-08-27T02:49:19;20.30;99.90
2487;DHT22;1254;49.144;8.212;2022-08-27T02:51:46;20.30;99.90
2487;DHT22;1254;49.144;8.212;2022-08-27T02:54:12;20.30;99.90
2487;DHT22;1254;49.144;8.212;2022-08-27T02:56:39;20.20;99.90
2487;DHT22;1254;49.144;8.212;2022-08-27T02:59:06;20.30;99.90
2487;DHT22;1254;49.144;8.212;2022-08-27T03:01:32;20.20;99.90
2487;DHT22;1254;49.144;8.212;2022-08-27T03:03:59;20.10;99.90
2487;DHT22;1254;49.144;8.212;2022-08-27T03:06:26;20.10;99.90
2487;DHT22;1254;49.144;8.212;2022-08-27T03:08:52;20.20;99.90
2487;DHT22;1254;49.144;8.212;2022-08-27T03:11:20;20.20;99.90
2487;DHT22;1254;49.144;8.212;2022-08-27T03:13:48;20.20;99.90
2487;DHT22;1254;49.144;8.212;2022-08-27T03:16:15;20.30;99.90
2487;DHT22;1254;49.144;8.212;2022-08-27T03:18:41;20.30;99.90
2487;DHT22;1254;49.144;8.212;2022-08-27T03:21:08;20.40;99.90
2487;DHT22;1254;49.144;8.212;2022-08-27T03:23:34;20.40;99.90
2487;DHT22;1254;49.144;8.212;2022-08-27T03:26:03;20.40;99.90
2487;DHT22;1254;49.144;8.212;2022-08-27T03:28:33;20.40;99.90
2487;DHT22;1254;49.144;8.212;2022-08-27T03:31:04;20.40;99.90
2487;DHT22;1254;49.144;8.212;2022-08-27T03:33:34;20.50;99.90
2487;DHT22;1254;49.144;8.212;2022-08-27T03:36:01;20.50;99.90
2487;DHT22;1254;49.144;8.212;2022-08-27T03:38:31;20.50;99.90
2487;DHT22;1254;49.144;8.212;2022-08-27T03:40:58;20.60;99.90
2487;DHT22;1254;49.144;8.212;2022-08-27T03:43:24;20.50;99.90
2487;DHT22;1254;49.144;8.212;2022-08-27T03:45:51;20.50;99.90
2487;DHT22;1254;49.144;8.212;2022-08-27T03:48:18;20.40;99.90
2487;DHT22;1254;49.144;8.212;2022-08-27T03:50:46;20.30;99.90
2487;DHT22;1254;49.144;8.212;2022-08-27T03:53:16;20.30;99.90
2487;DHT22;1254;49.144;8.212;2022-08-27T03:55:43;20.40;99.90
2487;DHT22;1254;49.144;8.212;2022-08-27T03:58:10;20.40;99.90
2487;DHT22;1254;49.144;8.212;2022-08-27T04:00:38;20.30;99.90
2487;DHT22;1254;49.144;8.212;2022-08-27T04:03:06;20.20;99.90
2487;DHT22;1254;49.144;8.212;2022-08-27T04:05:33;20.20;99.90
2487;DHT22;1254;49.144;8.212;2022-08-27T04:08:00;20.30;99.90
2487;DHT22;1254;49.144;8.212;2022-08-27T04:10:27;20.30;99.90
2487;DHT22;1254;49.144;8.212;2022-08-27T04:12:53;20.30;99.90
2487;DHT22;1254;49.144;8.212;2022-08-27T04:15:20;20.20;99.90
2487;DHT22;1254;49.144;8.212;2022-08-27T04:17:46;20.30;99.90
2487;DHT22;1254;49.144;8.212;2022-08-27T04:20:13;20.30;99.90
2487;DHT22;1254;49.144;8.212;2022-08-27T04:22:39;20.30;99.90
2487;DHT22;1254;49.144;8.212;2022-08-27T04:25:07;20.40;99.90
2487;DHT22;1254;49.144;8.212;2022-08-27T04:27:33;20.30;99.90
2487;DHT22;1254;49.144;8.212;2022-08-27T04:30:01;20.30;99.90
2487;DHT22;1254;49.144;8.212;2022-08-27T04:32:28;20.20;99.90
2487;DHT22;1254;49.144;8.212;2022-08-27T04:34:57;20.30;99.90
2487;DHT22;1254;49.144;8.212;2022-08-27T04:37:24;20.30;99.90
2487;DHT22;1254;49.144;8.212;2022-08-27T04:39:51;20.40;99.90
2487;DHT22;1254;49.144;8.212;2022-08-27T04:42:21;20.40;99.90
2487;DHT22;1254;49.144;8.212;2022-08-27T04:44:47;20.40;99.90
2487;DHT22;1254;49.144;8.212;2022-08-27T04:47:15;20.50;99.90
2487;DHT22;1254;49.144;8.212;2022-08-27T04:49:42;20.60;99.90
2487;DHT22;1254;49.144;8.212;2022-08-27T04:52:09;20.70;99.90
2487;DHT22;1254;49.144;8.212;2022-08-27T04:54:35;20.60;99.90
2487;DHT22;1254;49.144;8.212;2022-08-27T04:57:03;20.60;99.90
2487;DHT22;1254;49.144;8.212;2022-08-27T04:59:31;20.60;99.90
2487;DHT22;1254;49.144;8.212;2022-08-27T05:01:58;20.60;99.90
2487;DHT22;1254;49.144;8.212;2022-08-27T05:04:27;20.40;99.90
2487;DHT22;1254;49.144;8.212;2022-08-27T05:06:55;20.30;99.90
2487;DHT22;1254;49.144;8.212;2022-08-27T05:09:21;20.30;99.90
2487;DHT22;1254;49.144;8.212;2022-08-27T05:11:48;20.30;99.90
2487;DHT22;1254;49.144;8.212;2022-08-27T05:14:17;20.20;99.90
2487;DHT22;1254;49.144;8.212;2022-08-27T05:16:45;20.10;99.90
2487;DHT22;1254;49.144;8.212;2022-08-27T05:19:12;20.10;99.90
2487;DHT22;1254;49.144;8.212;2022-08-27T05:21:45;20.10;99.90
2487;DHT22;1254;49.144;8.212;2022-08-27T05:24:12;20.10;99.90
2487;DHT22;1254;49.144;8.212;2022-08-27T05:26:39;20.20;99.90
2487;DHT22;1254;49.144;8.212;2022-08-27T05:29:06;20.20;99.90
2487;DHT22;1254;49.144;8.212;2022-08-27T05:31:33;20.40;99.90
2487;DHT22;1254;49.144;8.212;2022-08-27T05:34:01;20.40;99.90
2487;DHT22;1254;49.144;8.212;2022-08-27T05:36:30;20.40;99.90
2487;DHT22;1254;49.144;8.212;2022-08-27T05:38:58;20.40;99.90
2487;DHT22;1254;49.144;8.212;2022-08-27T05:41:28;20.50;99.90
2487;DHT22;1254;49.144;8.212;2022-08-27T05:43:59;20.50;99.90
2487;DHT22;1254;49.144;8.212;2022-08-27T05:46:27;20.50;99.90
2487;DHT22;1254;49.144;8.212;2022-08-27T05:48:59;20.60;99.90
2487;DHT22;1254;49.144;8.212;2022-08-27T05:51:34;20.50;99.90
2487;DHT22;1254;49.144;8.212;2022-08-27T05:54:04;20.50;99.90
2487;DHT22;1254;49.144;8.212;2022-08-27T05:56:34;20.40;99.90
2487;DHT22;1254;49.144;8.212;2022-08-27T05:59:02;20.40;99.90
2487;DHT22;1254;49.144;8.212;2022-08-27T06:01:49;20.40;99.90
2487;DHT22;1254;49.144;8.212;2022-08-27T06:04:18;20.60;99.90
2487;DHT22;1254;49.144;8.212;2022-08-27T06:06:46;20.70;99.90
2487;DHT22;1254;49.144;8.212;2022-08-27T06:09:16;20.80;99.90
2487;DHT22;1254;49.144;8.212;2022-08-27T06:11:43;20.80;99.90
2487;DHT22;1254;49.144;8.212;2022-08-27T06:14:10;20.80;99.90
2487;DHT22;1254;49.144;8.212;2022-08-27T06:16:38;20.80;99.90
2487;DHT22;1254;49.144;8.212;2022-08-27T06:19:06;20.80;99.90
2487;DHT22;1254;49.144;8.212;2022-08-27T06:21:34;20.80;99.90
2487;DHT22;1254;49.144;8.212;2022-08-27T06:24:01;20.90;99.90
2487;DHT22;1254;49.144;8.212;2022-08-27T06:26:27;20.90;99.90
2487;DHT22;1254;49.144;8.212;2022-08-27T06:28:54;20.90;99.90
2487;DHT22;1254;49.144;8.212;2022-08-27T06:31:26;20.80;99.90
2487;DHT22;1254;49.144;8.212;2022-08-27T06:33:58;20.90;99.90
2487;DHT22;1254;49.144;8.212;2022-08-27T06:36:25;20.90;99.90
2487;DHT22;1254;49.144;8.212;2022-08-27T06:38:52;20.80;99.90
2487;DHT22;1254;49.144;8.212;2022-08-27T06:41:21;20.80;99.90
2487;DHT22;1254;49.144;8.212;2022-08-27T06:43:48;20.80;99.90
2487;DHT22;1254;49.144;8.212;2022-08-27T06:46:17;20.80;99.90
2487;DHT22;1254;49.144;8.212;2022-08-27T06:48:44;20.80;99.90
2487;DHT22;1254;49.144;8.212;2022-08-27T06:51:18;20.80;99.90
2487;DHT22;1254;49.144;8.212;2022-08-27T06:53:46;20.80;99.90
2487;DHT22;1254;49.144;8.212;2022-08-27T06:56:16;20.80;99.90
2487;DHT22;1254;49.144;8.212;2022-08-27T06:58:43;20.80;99.90
2487;DHT22;1254;49.144;8.212;2022-08-27T07:01:26;20.80;99.90
2487;DHT22;1254;49.144;8.212;2022-08-27T07:04:00;20.70;99.90
2487;DHT22;1254;49.144;8.212;2022-08-27T07:06:29;20.70;99.90
2487;DHT22;1254;49.144;8.212;2022-08-27T07:08:55;20.60;99.90
2487;DHT22;1254;49.144;8.212;2022-08-27T07:11:23;20.50;99.90
2487;DHT22;1254;49.144;8.212;2022-08-27T07:13:50;20.60;99.90
2487;DHT22;1254;49.144;8.212;2022-08-27T07:16:19;20.60;99.90
2487;DHT22;1254;49.144;8.212;2022-08-27T07:18:46;20.60;99.90
2487;DHT22;1254;49.144;8.212;2022-08-27T07:21:14;20.60;99.90
2487;DHT22;1254;49.144;8.212;2022-08-27T07:23:40;20.60;99.90
2487;DHT22;1254;49.144;8.212;2022-08-27T07:26:08;20.60;99.90
2487;DHT22;1254;49.144;8.212;2022-08-27T07:28:36;20.60;99.90
2487;DHT22;1254;49.144;8.212;2022-08-27T07:31:04;20.60;99.90
2487;DHT22;1254;49.144;8.212;2022-08-27T07:33:31;20.60;99.90
2487;DHT22;1254;49.144;8.212;2022-08-27T07:35:57;20.50;99.90
2487;DHT22;1254;49.144;8.212;2022-08-27T07:38:24;20.70;99.90
2487;DHT22;1254;49.144;8.212;2022-08-27T07:40:50;20.80;99.90
2487;DHT22;1254;49.144;8.212;2022-08-27T07:43:17;20.80;99.90
2487;DHT22;1254;49.144;8.212;2022-08-27T07:46:03;20.80;99.90
2487;DHT22;1254;49.144;8.212;2022-08-27T07:48:31;20.70;99.90
2487;DHT22;1254;49.144;8.212;2022-08-27T07:51:01;20.70;99.90
2487;DHT22;1254;49.144;8.212;2022-08-27T07:53:33;20.70;99.90
2487;DHT22;1254;49.144;8.212;2022-08-27T07:56:04;20.70;99.90
2487;DHT22;1254;49.144;8.212;2022-08-27T07:58:31;20.60;99.90
2487;DHT22;1254;49.144;8.212;2022-08-27T08:01:04;20.70;99.90
2487;DHT22;1254;49.144;8.212;2022-08-27T08:03:31;20.60;99.90
2487;DHT22;1254;49.144;8.212;2022-08-27T08:06:05;20.60;99.90
2487;DHT22;1254;49.144;8.212;2022-08-27T08:08:34;20.50;99.90
2487;DHT22;1254;49.144;8.212;2022-08-27T08:11:03;20.40;99.90
2487;DHT22;1254;49.144;8.212;2022-08-27T08:13:35;20.30;99.90
2487;DHT22;1254;49.144;8.212;2022-08-27T08:16:02;20.30;99.90
2487;DHT22;1254;49.144;8.212;2022-08-27T08:18:29;20.20;99.90
2487;DHT22;1254;49.144;8.212;2022-08-27T08:21:04;20.20;99.90
2487;DHT22;1254;49.144;8.212;2022-08-27T08:23:31;20.20;99.90
2487;DHT22;1254;49.144;8.212;2022-08-27T08:25:59;20.10;99.90
2487;DHT22;1254;49.144;8.212;2022-08-27T08:28:27;20.10;99.90
2487;DHT22;1254;49.144;8.212;2022-08-27T08:30:56;20.00;99.90
2487;DHT22;1254;49.144;8.212;2022-08-27T08:33:23;19.90;99.90
2487;DHT22;1254;49.144;8.212;2022-08-27T08:35:50;19.90;99.90
2487;DHT22;1254;49.144;8.212;2022-08-27T08:38:17;19.80;99.90
2487;DHT22;1254;49.144;8.212;2022-08-27T08:40:48;19.70;99.90
2487;DHT22;1254;49.144;8.212;2022-08-27T08:43:33;19.70;99.90
2487;DHT22;1254;49.144;8.212;2022-08-27T08:46:15;19.70;99.90
2487;DHT22;1254;49.144;8.212;2022-08-27T08:48:50;19.80;99.90
2487;DHT22;1254;49.144;8.212;2022-08-27T08:51:29;19.70;99.90
2487;DHT22;1254;49.144;8.212;2022-08-27T08:54:07;19.70;99.90
2487;DHT22;1254;49.144;8.212;2022-08-27T08:57:15;19.80;99.90
2487;DHT22;1254;49.144;8.212;2022-08-27T08:59:47;19.90;99.90
2487;DHT22;1254;49.144;8.212;2022-08-27T09:02:16;19.80;99.90
2487;DHT22;1254;49.144;8.212;2022-08-27T09:04:43;19.80;99.90
2487;DHT22;1254;49.144;8.212;2022-08-27T09:10:44;19.80;99.90
2487;DHT22;1254;49.144;8.212;2022-08-27T09:12:44;19.80;99.90
2487;DHT22;1254;49.144;8.212;2022-08-27T09:15:18;19.90;99.90
2487;DHT22;1254;49.144;8.212;2022-08-27T09:17:47;19.90;99.90
2487;DHT22;1254;49.144;8.212;2022-08-27T09:20:20;19.90;99.90
2487;DHT22;1254;49.144;8.212;2022-08-27T09:27:54;19.80;99.90
2487;DHT22;1254;49.144;8.212;2022-08-27T09:30:24;19.90;99.90
2487;DHT22;1254;49.144;8.212;2022-08-27T09:33:01;19.80;99.90
2487;DHT22;1254;49.144;8.212;2022-08-27T09:35:42;19.80;99.90
2487;DHT22;1254;49.144;8.212;2022-08-27T09:38:10;19.90;99.90
2487;DHT22;1254;49.144;8.212;2022-08-27T09:40:49;20.00;99.90
2487;DHT22;1254;49.144;8.212;2022-08-27T09:45:47;20.10;99.90
2487;DHT22;1254;49.144;8.212;2022-08-27T09:48:18;20.00;99.90
2487;DHT22;1254;49.144;8.212;2022-08-27T09:50:48;20.00;99.90
2487;DHT22;1254;49.144;8.212;2022-08-27T09:53:18;19.90;99.90
2487;DHT22;1254;49.144;8.212;2022-08-27T09:55:53;20.00;99.90
2487;DHT22;1254;49.144;8.212;2022-08-27T09:58:26;19.90;99.90
2487;DHT22;1254;49.144;8.212;2022-08-27T10:01:19;19.80;99.90
2487;DHT22;1254;49.144;8.212;2022-08-27T10:03:46;19.60;99.90
2487;DHT22;1254;49.144;8.212;2022-08-27T10:06:12;19.60;99.90
2487;DHT22;1254;49.144;8.212;2022-08-27T10:08:47;19.50;99.90
2487;DHT22;1254;49.144;8.212;2022-08-27T10:11:22;19.50;99.90
2487;DHT22;1254;49.144;8.212;2022-08-27T10:13:54;19.50;99.90
2487;DHT22;1254;49.144;8.212;2022-08-27T10:27:38;19.50;99.90
2487;DHT22;1254;49.144;8.212;2022-08-27T10:30:11;19.50;99.90
2487;DHT22;1254;49.144;8.212;2022-08-27T10:38:14;19.70;99.90
2487;DHT22;1254;49.144;8.212;2022-08-27T10:48:38;19.80;99.90
2487;DHT22;1254;49.144;8.212;2022-08-27T10:51:25;19.80;99.90
2487;DHT22;1254;49.144;8.212;2022-08-27T10:54:08;19.70;99.90
2487;DHT22;1254;49.144;8.212;2022-08-27T11:02:30;19.90;99.90
2487;DHT22;1254;49.144;8.212;2022-08-27T11:05:20;19.90;99.90
2487;DHT22;1254;49.144;8.212;2022-08-27T11:10:43;20.20;99.90
2487;DHT22;1254;49.144;8.212;2022-08-27T11:13:31;20.20;99.90
2487;DHT22;1254;49.144;8.212;2022-08-27T11:16:07;20.20;99.90
2487;DHT22;1254;49.144;8.212;2022-08-27T11:18:46;20.20;99.90
2487;DHT22;1254;49.144;8.212;2022-08-27T11:21:40;20.40;99.90
2487;DHT22;1254;49.144;8.212;2022-08-27T11:24:27;20.30;99.90
2487;DHT22;1254;49.144;8.212;2022-08-27T11:27:01;20.20;99.90
2487;DHT22;1254;49.144;8.212;2022-08-27T11:29:45;20.30;99.90
2487;DHT22;1254;49.144;8.212;2022-08-27T11:35:08;20.40;99.90
2487;DHT22;1254;49.144;8.212;2022-08-27T11:41:11;20.70;99.90
2487;DHT22;1254;49.144;8.212;2022-08-27T11:43:41;20.90;99.90
2487;DHT22;1254;49.144;8.212;2022-08-27T11:46:10;20.80;99.90
2487;DHT22;1254;49.144;8.212;2022-08-27T11:48:42;20.60;99.90
2487;DHT22;1254;49.144;8.212;2022-08-27T11:51:32;20.50;99.90
2487;DHT22;1254;49.144;8.212;2022-08-27T11:54:28;20.60;99.90
2487;DHT22;1254;49.144;8.212;2022-08-27T11:56:51;20.60;99.90
2487;DHT22;1254;49.144;8.212;2022-08-27T12:01:56;20.90;99.90
2487;DHT22;1254;49.144;8.212;2022-08-27T12:04:35;21.00;99.90
2487;DHT22;1254;49.144;8.212;2022-08-27T12:09:51;21.10;99.90
2487;DHT22;1254;49.144;8.212;2022-08-27T12:21:02;20.80;99.90
2487;DHT22;1254;49.144;8.212;2022-08-27T12:23:48;20.90;99.90
2487;DHT22;1254;49.144;8.212;2022-08-27T12:28:45;20.80;99.90
2487;DHT22;1254;49.144;8.212;2022-08-27T12:31:18;20.80;99.90
2487;DHT22;1254;49.144;8.212;2022-08-27T12:33:50;20.90;99.90
2487;DHT22;1254;49.144;8.212;2022-08-27T12:36:23;21.20;99.90
2487;DHT22;1254;49.144;8.212;2022-08-27T12:38:53;21.20;99.90
2487;DHT22;1254;49.144;8.212;2022-08-27T12:41:33;21.40;99.90
2487;DHT22;1254;49.144;8.212;2022-08-27T12:44:11;21.30;99.90
2487;DHT22;1254;49.144;8.212;2022-08-27T12:46:49;21.50;99.90
2487;DHT22;1254;49.144;8.212;2022-08-27T12:49:23;21.80;99.90
2487;DHT22;1254;49.144;8.212;2022-08-27T12:51:54;21.70;99.90
2487;DHT22;1254;49.144;8.212;2022-08-27T12:57:38;22.00;99.90
2487;DHT22;1254;49.144;8.212;2022-08-27T13:00:14;22.50;99.90
2487;DHT22;1254;49.144;8.212;2022-08-27T13:05:41;23.10;99.90
2487;DHT22;1254;49.144;8.212;2022-08-27T13:08:30;23.10;99.90
2487;DHT22;1254;49.144;8.212;2022-08-27T13:11:21;23.30;99.90
2487;DHT22;1254;49.144;8.212;2022-08-27T13:13:50;23.30;99.90
2487;DHT22;1254;49.144;8.212;2022-08-27T13:16:19;23.60;99.90
2487;DHT22;1254;49.144;8.212;2022-08-27T13:18:47;23.70;99.90
2487;DHT22;1254;49.144;8.212;2022-08-27T13:21:21;23.50;99.90
2487;DHT22;1254;49.144;8.212;2022-08-27T13:24:19;23.90;99.90
2487;DHT22;1254;49.144;8.212;2022-08-27T13:26:50;23.90;99.90
2487;DHT22;1254;49.144;8.212;2022-08-27T13:29:18;24.30;99.90
2487;DHT22;1254;49.144;8.212;2022-08-27T13:31:45;24.40;99.90
2487;DHT22;1254;49.144;8.212;2022-08-27T13:34:19;24.60;99.90
2487;DHT22;1254;49.144;8.212;2022-08-27T13:36:52;25.10;99.90
2487;DHT22;1254;49.144;8.212;2022-08-27T13:39:19;25.50;99.90
2487;DHT22;1254;49.144;8.212;2022-08-27T13:41:47;26.40;99.90
2487;DHT22;1254;49.144;8.212;2022-08-27T13:44:24;26.70;99.90
2487;DHT22;1254;49.144;8.212;2022-08-27T13:46:58;26.90;99.90
2487;DHT22;1254;49.144;8.212;2022-08-27T13:49:27;26.70;99.90
2487;DHT22;1254;49.144;8.212;2022-08-27T13:54:47;27.40;99.90
2487;DHT22;1254;49.144;8.212;2022-08-27T13:57:30;27.20;99.90
2487;DHT22;1254;49.144;8.212;2022-08-27T14:00:31;26.80;99.90
2487;DHT22;1254;49.144;8.212;2022-08-27T14:02:58;27.20;99.90
2487;DHT22;1254;49.144;8.212;2022-08-27T14:05:29;27.30;99.90
2487;DHT22;1254;49.144;8.212;2022-08-27T14:07:59;26.60;99.90
2487;DHT22;1254;49.144;8.212;2022-08-27T14:13:08;26.40;99.90
2487;DHT22;1254;49.144;8.212;2022-08-27T14:15:44;26.50;99.90
2487;DHT22;1254;49.144;8.212;2022-08-27T14:18:32;26.50;99.90
2487;DHT22;1254;49.144;8.212;2022-08-27T14:21:00;26.40;99.90
2487;DHT22;1254;49.144;8.212;2022-08-27T14:23:29;26.50;99.90
2487;DHT22;1254;49.144;8.212;2022-08-27T14:25:58;26.90;99.90
2487;DHT22;1254;49.144;8.212;2022-08-27T14:28:26;28.00;99.90
2487;DHT22;1254;49.144;8.212;2022-08-27T14:30:53;28.60;99.90
2487;DHT22;1254;49.144;8.212;2022-08-27T14:33:19;29.10;99.90
2487;DHT22;1254;49.144;8.212;2022-08-27T14:35:46;30.00;99.90
2487;DHT22;1254;49.144;8.212;2022-08-27T14:38:18;30.90;99.90
2487;DHT22;1254;49.144;8.212;2022-08-27T14:40:47;31.30;99.90
2487;DHT22;1254;49.144;8.212;2022-08-27T14:43:14;31.10;99.90
2487;DHT22;1254;49.144;8.212;2022-08-27T14:45:45;31.10;99.90
2487;DHT22;1254;49.144;8.212;2022-08-27T14:48:20;31.30;99.90
2487;DHT22;1254;49.144;8.212;2022-08-27T14:50:47;30.80;99.90
2487;DHT22;1254;49.144;8.212;2022-08-27T14:53:14;31.30;99.90
2487;DHT22;1254;49.144;8.212;2022-08-27T14:55:41;30.50;99.90
2487;DHT22;1254;49.144;8.212;2022-08-27T14:58:07;30.80;99.90
2487;DHT22;1254;49.144;8.212;2022-08-27T15:00:33;31.80;99.90
2487;DHT22;1254;49.144;8.212;2022-08-27T15:03:00;32.10;99.90
2487;DHT22;1254;49.144;8.212;2022-08-27T15:05:27;31.40;99.90
2487;DHT22;1254;49.144;8.212;2022-08-27T15:07:53;31.00;99.90
2487;DHT22;1254;49.144;8.212;2022-08-27T15:10:22;31.00;99.90
2487;DHT22;1254;49.144;8.212;2022-08-27T15:12:49;30.80;99.90
2487;DHT22;1254;49.144;8.212;2022-08-27T15:15:16;30.70;99.90
2487;DHT22;1254;49.144;8.212;2022-08-27T15:17:45;30.30;99.90
2487;DHT22;1254;49.144;8.212;2022-08-27T15:20:13;30.90;99.90
2487;DHT22;1254;49.144;8.212;2022-08-27T15:22:41;30.70;99.90
2487;DHT22;1254;49.144;8.212;2022-08-27T15:25:09;30.90;99.90
2487;DHT22;1254;49.144;8.212;2022-08-27T15:27:36;30.80;99.90
2487;DHT22;1254;49.144;8.212;2022-08-27T15:30:08;29.90;99.90
2487;DHT22;1254;49.144;8.212;2022-08-27T15:32:40;29.70;99.90
2487;DHT22;1254;49.144;8.212;2022-08-27T15:35:10;29.80;99.90
2487;DHT22;1254;49.144;8.212;2022-08-27T15:37:40;30.00;99.90
2487;DHT22;1254;49.144;8.212;2022-08-27T15:40:07;29.30;99.90
2487;DHT22;1254;49.144;8.212;2022-08-27T15:42:34;28.70;99.90
2487;DHT22;1254;49.144;8.212;2022-08-27T15:45:01;28.10;99.90
2487;DHT22;1254;49.144;8.212;2022-08-27T15:47:27;27.80;99.90
2487;DHT22;1254;49.144;8.212;2022-08-27T15:49:53;27.40;99.90
2487;DHT22;1254;49.144;8.212;2022-08-27T15:52:21;26.90;99.90
2487;DHT22;1254;49.144;8.212;2022-08-27T15:54:47;26.70;99.90
2487;DHT22;1254;49.144;8.212;2022-08-27T15:57:14;26.60;99.90
2487;DHT22;1254;49.144;8.212;2022-08-27T15:59:40;26.40;99.90
2487;DHT22;1254;49.144;8.212;2022-08-27T16:02:15;26.20;99.90
2487;DHT22;1254;49.144;8.212;2022-08-27T16:04:43;26.20;99.90
2487;DHT22;1254;49.144;8.212;2022-08-27T16:07:13;26.10;99.90
2487;DHT22;1254;49.144;8.212;2022-08-27T16:09:40;25.90;99.90
2487;DHT22;1254;49.144;8.212;2022-08-27T16:12:07;25.70;99.90
2487;DHT22;1254;49.144;8.212;2022-08-27T16:14:34;25.80;99.90
2487;DHT22;1254;49.144;8.212;2022-08-27T16:17:00;25.80;99.90
2487;DHT22;1254;49.144;8.212;2022-08-27T16:19:31;26.10;99.90
2487;DHT22;1254;49.144;8.212;2022-08-27T16:21:57;26.30;99.90
2487;DHT22;1254;49.144;8.212;2022-08-27T16:24:24;26.00;99.90
2487;DHT22;1254;49.144;8.212;2022-08-27T16:26:50;25.90;99.90
2487;DHT22;1254;49.144;8.212;2022-08-27T16:29:17;25.90;99.90
2487;DHT22;1254;49.144;8.212;2022-08-27T16:31:43;25.70;99.90
2487;DHT22;1254;49.144;8.212;2022-08-27T16:34:18;25.60;99.90
2487;DHT22;1254;49.144;8.212;2022-08-27T16:36:46;25.50;99.90
2487;DHT22;1254;49.144;8.212;2022-08-27T16:39:13;25.50;99.90
2487;DHT22;1254;49.144;8.212;2022-08-27T16:41:39;25.30;99.90
2487;DHT22;1254;49.144;8.212;2022-08-27T16:44:07;25.20;99.90
2487;DHT22;1254;49.144;8.212;2022-08-27T16:46:33;25.30;99.90
2487;DHT22;1254;49.144;8.212;2022-08-27T16:49:00;25.20;99.90
2487;DHT22;1254;49.144;8.212;2022-08-27T16:51:45;25.20;99.90
2487;DHT22;1254;49.144;8.212;2022-08-27T16:54:12;25.00;99.90
2487;DHT22;1254;49.144;8.212;2022-08-27T16:56:40;24.90;99.90
2487;DHT22;1254;49.144;8.212;2022-08-27T16:59:07;24.60;99.90
2487;DHT22;1254;49.144;8.212;2022-08-27T17:01:34;24.80;99.90
2487;DHT22;1254;49.144;8.212;2022-08-27T17:04:01;24.80;99.90
2487;DHT22;1254;49.144;8.212;2022-08-27T17:06:31;24.70;99.90
2487;DHT22;1254;49.144;8.212;2022-08-27T17:08:57;24.30;99.90
2487;DHT22;1254;49.144;8.212;2022-08-27T17:11:27;24.20;99.90
2487;DHT22;1254;49.144;8.212;2022-08-27T17:13:55;24.10;99.90
2487;DHT22;1254;49.144;8.212;2022-08-27T17:16:26;24.10;99.90
2487;DHT22;1254;49.144;8.212;2022-08-27T17:18:55;24.20;99.90
2487;DHT22;1254;49.144;8.212;2022-08-27T17:21:24;24.20;99.90
2487;DHT22;1254;49.144;8.212;2022-08-27T17:23:52;24.00;99.90
2487;DHT22;1254;49.144;8.212;2022-08-27T17:26:20;23.90;99.90
2487;DHT22;1254;49.144;8.212;2022-08-27T17:28:48;24.00;99.90
2487;DHT22;1254;49.144;8.212;2022-08-27T17:31:26;24.00;99.90
2487;DHT22;1254;49.144;8.212;2022-08-27T17:33:56;23.80;99.90
2487;DHT22;1254;49.144;8.212;2022-08-27T17:36:24;23.80;99.90
2487;DHT22;1254;49.144;8.212;2022-08-27T17:38:51;23.70;99.90
2487;DHT22;1254;49.144;8.212;2022-08-27T17:41:27;23.70;99.90
2487;DHT22;1254;49.144;8.212;2022-08-27T17:43:55;23.40;99.90
2487;DHT22;1254;49.144;8.212;2022-08-27T17:46:24;23.50;99.90